• Join FlightAware (Why Join?)
  • Login
  • US Flag 
01:57AM EDT


 

Airport Tracker/Info


-or-


 

Live Flight TrackerFlight Track Log ✈ RPA3275 ✈ 05-Sep-2013 ✈ KALB - KPHL

Flight Track Log - Related Links

Times and Time Zones

All times are in EDT time to prevent confusion due to time zone crossing. See the RPA3275 flight status page for this flight to view local times or setup timezone preferences in your user account.

Time Position Orientation Groundspeed Altitude Reporting Facility
EDT Latitude Longitude Course Direction KTS MPH feet Rate Location/Type
06:54AM 42.7483 -73.8197 220° Southwest 143 165 1,200  Level Boston Center
06:55AM 42.7472 -73.8950 269° West 203 234 3,800 2,820 Climbing Boston Center
06:56AM 42.7475 -73.9906 270° West 242 278 7,500 3,240 Climbing Boston Center
06:57AM 42.7306 -74.3055 236° Southwest  Level FlightAware Approximate
06:57AM 42.7472 -74.0831 270° West 244 281 10,800  Level Boston Center
06:58AM 42.6641 -74.3926 220° Southwest  Level FlightAware Approximate
06:58AM 42.7467 -74.1958 270° West 280 322 13,600  Level Boston Center
06:59AM 42.5924 -74.4732 220° Southwest  Level FlightAware Approximate
06:59AM 42.7436 -74.3028 268° West 286 329 16,500  Level Boston Center
07:00AM 42.6808 -74.3844 224° Southwest 315 362 18,700 1,200 Climbing Boston Center
07:01AM 42.6119 -74.4636 220° Southwest 324 373 19,000 120 Climbing Boston Center
07:02AM 42.5436 -74.5425 220° Southwest 323 372 19,000  Level Boston Center
07:03AM 42.4706 -74.6267 220° Southwest 321 369 19,000  Level Boston Center
07:04AM 42.4011 -74.7056 220° Southwest 324 373 19,000  Level Boston Center
07:05AM 42.3328 -74.7842 220° Southwest 324 373 19,000  Level Boston Center
07:06AM 42.2733 -74.8522 220° Southwest 328 377 19,000  Level Boston Center
07:07AM 42.1908 -74.9442 220° Southwest 322 371 19,000  Level Boston Center
07:08AM 42.1144 -75.0114 213° Southwest 328 377 19,000  Level Boston Center
07:10AM 42.0350 -75.0756 211° Southwest 330 380 19,000  Level Boston Center
07:11AM 41.9575 -75.1386 211° Southwest 325 374 19,000  Level Boston Center
07:12AM 41.8792 -75.2039 212° Southwest 330 380 19,000  Level Boston Center
07:13AM 41.8006 -75.2675 211° Southwest 330 380 19,000 -720 Level Boston Center
07:14AM 41.7225 -75.3319 212° Southwest 331 381 17,600 -1,500 Descending Boston Center
07:15AM 41.6375 -75.4006 211° Southwest 331 381 15,800 -1,620 Descending New York Center
07:16AM 41.5622 -75.4619 211° Southwest 331 381 14,200 -1,680 Descending New York Center
07:17AM 41.4783 -75.5281 211° Southwest 326 375 12,500 -1,140 Descending New York Center
07:18AM 41.4031 -75.5864 210° Southwest 326 375 12,000 -300 Descending New York Center
07:19AM 41.3319 -75.6419 210° Southwest 326 375 12,000 -60 Level New York Center
07:20AM 41.2444 -75.6936 204° Southwest 320 368 11,900 -660 Descending New York Center
07:21AM 41.1614 -75.6875 177° South 322 371 10,700 -960 Descending New York Center
07:22AM 41.0656 -75.6889 181° South 322 371 10,000 -360 Descending New York Center
07:23AM 40.9842 -75.6886 180° South 312 359 10,000  Level New York Center
07:24AM 40.8953 -75.6767 174° South 312 359 10,000  Level New York Center
07:25AM 40.8136 -75.6350 159° South 317 365 10,000  Level New York Center
07:26AM 40.7361 -75.5911 157° South 326 375 10,000  Level New York Center
07:27AM 40.6444 -75.5383 156° South 326 375 10,000  Level New York Center
07:28AM 40.5608 -75.4942 158° South 326 375 10,000  Level New York Center
07:29AM 40.4814 -75.4478 156° South 321 369 10,000 -300 Level New York Center
07:30AM 40.4122 -75.4078 156° South 308 354 9,500 -1,260 Descending New York Center
07:31AM 40.3286 -75.3586 156° South 303 349 7,500 -1,260 Descending New York Center
07:32AM 40.2572 -75.3183 157° South 293 337 7,000 -300 Descending New York Center
07:33AM 40.1775 -75.2778 159° South 293 337 7,000 -480 Level New York Center
07:34AM 40.1175 -75.2142 141° Southeast 288 331 6,100 -1,020 Descending New York Center
07:35AM 40.0656 -75.1486 136° Southeast 288 331 5,000 -1,020 Descending New York Center
07:36AM 40.0117 -75.0828 137° Southeast 258 297 4,100 -1,020 Descending New York Center
07:37AM 39.9608 -75.0497 154° Southeast 235 270 3,000 -780 Descending New York Center
07:38AM 39.9064 -75.0572 186° South 186 214 2,600 -600 Descending New York Center
07:39AM 39.8983 -75.1083 258° West 137 158 1,900 -780 Descending New York Center
07:40AM 39.8858 -75.1617 253° West 137 158 1,100 -780 Descending New York Center
07:41AM 39.8803 -75.2019 260° West 128 147 400 -720 Descending New York Center